Black River, Michigan
Current Conditions -  °F | °C
As of 1:54 PM on Monday 20 Oct 2014 (Local Time) from KAPN Reporting Station
Overcast Overcast  
Wind Chill: 52°   Ceiling: 1900
Heat Index: 52°   Visibility: 10mi
Dew Point: 48°   Wind: 3mph
Humidity: 86%   Direction: 310°NW
Pressure: 29.75"   Gusts: NA
Location:  44.82°N, 83.3°W
Report Text: KAPN 201754Z AUTO 31003KT 10SM FEW011 OVC019 11/09 A2975 RMK AO2 SLP078 T01110089 10111 20078 56003 TSNO
Loading
Personal Weather Stations






























Interactive Weather Map
Tropical Storm Tracking
New forecast layout! Learn more

10-Day Weather Forecast

Advertisements
Track Severe Weather on mobile